Time;durP1;ratioP1;P1;durP2;ratioP2;P2;SDS_P1;SDS_P2;PMS_P1;PMS_P2;Temp;Humidity;BMP_temperature;BMP_pressure;BME280_temperature;BME280_humidity;BME280_pressure;Samples;Min_cycle;Max_cycle;Signal;HPM_P1;HPM_P2
2023/07/28 06:06:57;;;;;;;;;2.00;2.00;;;;;22.28;59.18;100557.44;5106653;27;45355;-71
2023/07/28 06:09:22;;;;;;;;;2.00;2.00;;;;;22.46;59.11;100559.16;5102539;27;45715;-73
2023/07/28 06:11:47;;;;;;;;;5.00;2.67;;;;;22.76;58.91;100573.97;5100172;27;45454;-71
2023/07/28 06:14:13;;;;;;;;;1.00;1.00;;;;;22.95;58.54;100582.75;5099371;27;45516;-71
2023/07/28 06:16:38;;;;;;;;;2.67;2.67;;;;;23.12;58.44;100575.50;5094120;27;56019;-71
2023/07/28 06:19:04;;;;;;;;;1.67;1.67;;;;;23.30;58.08;100586.13;5100497;27;45585;-72
2023/07/28 06:21:29;;;;;;;;;2.33;1.00;;;;;23.48;57.92;100589.69;5082668;27;45868;-71
2023/07/28 06:23:55;;;;;;;;;5.00;2.00;;;;;23.63;57.63;100584.44;5102232;27;45519;-71
2023/07/28 06:26:20;;;;;;;;;3.00;2.00;;;;;23.77;57.52;100589.13;5104566;27;46195;-71
2023/07/28 06:28:45;;;;;;;;;2.00;2.00;;;;;23.90;57.18;100577.72;5106265;27;45508;-71
2023/07/28 06:31:11;;;;;;;;;2.67;2.00;;;;;24.02;57.09;100583.63;5097539;27;46016;-71
2023/07/28 06:33:36;;;;;;;;;2.00;2.00;;;;;24.14;57.23;100592.25;5101779;27;45685;-72
2023/07/28 06:36:02;;;;;;;;;1.33;1.33;;;;;24.24;57.03;100585.75;5105825;27;45500;-72
2023/07/28 06:38:27;;;;;;;;;4.33;2.00;;;;;24.34;56.58;100580.94;5102940;27;46306;-73
2023/07/28 06:40:53;;;;;;;;;2.00;2.00;;;;;24.43;56.58;100587.16;5098228;27;52886;-73
2023/07/28 06:43:19;;;;;;;;;1.00;1.00;;;;;24.50;56.33;100588.16;5106270;27;47786;-73
2023/07/28 06:45:45;;;;;;;;;1.00;1.00;;;;;24.59;56.02;100599.78;5109732;27;45590;-73
2023/07/28 06:48:10;;;;;;;;;2.00;2.00;;;;;24.65;55.84;100600.94;5109466;27;45764;-72
2023/07/28 06:50:35;;;;;;;;;3.67;2.00;;;;;24.72;55.65;100604.63;5109390;27;45443;-72
2023/07/28 06:53:00;;;;;;;;;1.00;1.00;;;;;24.79;55.46;100602.03;5104325;27;52309;-72
2023/07/28 06:55:26;;;;;;;;;1.00;1.00;;;;;24.82;55.55;100616.13;5108706;27;45425;-72
2023/07/28 06:57:51;;;;;;;;;1.33;1.33;;;;;24.87;55.56;100610.16;5110169;27;45651;-72
2023/07/28 07:00:19;;;;;;;;;1.00;1.00;;;;;24.94;55.19;100624.72;5110061;27;45400;-72
2023/07/28 07:02:45;;;;;;;;;1.00;1.00;;;;;24.99;55.43;100629.59;5108410;27;45732;-73
2023/07/28 07:05:11;;;;;;;;;1.00;1.00;;;;;25.04;55.02;100629.88;5099211;27;46052;-72
2023/07/28 07:07:36;;;;;;;;;4.00;0.67;;;;;25.05;54.84;100622.59;5095641;27;45607;-72
2023/07/28 07:10:02;;;;;;;;;1.33;1.00;;;;;25.12;54.62;100626.25;5097693;27;45415;-72
2023/07/28 07:12:27;;;;;;;;;0.00;0.00;;;;;25.13;54.74;100620.66;5090845;27;45738;-72
2023/07/28 07:14:53;;;;;;;;;1.00;1.00;;;;;25.17;54.72;100623.84;5075012;27;46001;-72
2023/07/28 07:17:18;;;;;;;;;1.00;1.00;;;;;25.22;55.06;100620.59;5089862;27;45720;-72
2023/07/28 07:19:43;;;;;;;;;2.00;0.00;;;;;25.23;55.15;100628.56;5074893;27;46819;-71
2023/07/28 07:22:09;;;;;;;;;1.33;1.33;;;;;25.26;54.72;100627.34;5075052;27;45827;-71
2023/07/28 07:24:34;;;;;;;;;1.00;1.00;;;;;25.24;55.02;100618.53;5076246;27;45984;-71
2023/07/28 07:26:59;;;;;;;;;1.00;0.67;;;;;25.31;54.64;100626.78;5077852;27;51896;-71
2023/07/28 07:29:25;;;;;;;;;1.00;1.00;;;;;25.32;54.40;100612.16;5078766;27;45887;-71
2023/07/28 07:31:55;;;;;;;;;0.67;0.67;;;;;25.35;54.83;100617.25;5076648;27;45712;-71
2023/07/28 07:34:22;;;;;;;;;2.00;0.00;;;;;25.33;54.77;100619.28;5076018;27;46168;-71
2023/07/28 07:36:47;;;;;;;;;1.00;0.67;;;;;25.38;54.20;100627.75;5083326;27;45637;-72
2023/07/28 07:39:13;;;;;;;;;0.00;0.00;;;;;25.41;54.62;100631.97;5077102;27;46714;-72
2023/07/28 07:41:39;;;;;;;;;1.00;1.00;;;;;25.42;54.75;100629.03;5075971;27;46920;-72
2023/07/28 07:44:04;;;;;;;;;0.00;0.00;;;;;25.45;54.37;100630.56;5076071;27;45536;-73
2023/07/28 07:46:30;;;;;;;;;0.00;0.00;;;;;25.42;54.53;100630.94;5076005;27;45652;-72
2023/07/28 07:48:55;;;;;;;;;1.67;1.33;;;;;25.49;54.03;100645.47;5091948;27;46268;-72
2023/07/28 07:51:20;;;;;;;;;0.00;0.00;;;;;25.48;54.34;100647.34;5105346;27;53428;-72
2023/07/28 07:53:45;;;;;;;;;0.67;0.00;;;;;25.48;53.96;100643.78;5094787;27;45432;-72
2023/07/28 07:56:11;;;;;;;;;0.00;0.00;;;;;25.47;54.12;100640.19;5092801;27;45476;-72
2023/07/28 07:58:36;;;;;;;;;0.00;0.00;;;;;25.45;53.99;100639.56;5098005;27;45902;-71
2023/07/28 08:01:02;;;;;;;;;0.00;0.00;;;;;25.47;54.41;100652.97;5095813;27;45612;-72
2023/07/28 08:03:27;;;;;;;;;1.00;1.00;;;;;25.46;53.91;100651.28;5107465;27;45380;-72
2023/07/28 08:05:53;;;;;;;;;1.00;1.00;;;;;25.44;54.31;100648.75;5108294;27;45369;-72
2023/07/28 08:08:19;;;;;;;;;1.00;1.00;;;;;25.42;54.53;100653.50;5081264;27;45510;-72
2023/07/28 08:10:47;;;;;;;;;0.33;0.33;;;;;25.43;54.46;100648.91;5072106;27;46225;-72
2023/07/28 08:13:12;;;;;;;;;1.00;0.00;;;;;25.44;54.58;100650.59;5078931;27;46940;-71
2023/07/28 08:15:37;;;;;;;;;0.00;0.00;;;;;25.44;54.60;100665.03;5085031;27;45579;-71
2023/07/28 08:18:03;;;;;;;;;0.00;0.00;;;;;25.45;54.60;100660.44;5073304;27;46105;-72
2023/07/28 08:20:28;;;;;;;;;0.00;0.00;;;;;25.44;54.29;100656.88;5075426;27;45818;-71
2023/07/28 08:22:53;;;;;;;;;1.00;1.00;;;;;25.47;54.48;100663.81;5075918;27;46075;-71
2023/07/28 08:25:19;;;;;;;;;0.00;0.00;;;;;25.48;54.24;100668.22;5082932;27;47200;-70
2023/07/28 08:27:44;;;;;;;;;1.00;1.00;;;;;25.50;54.75;100671.63;5076792;27;46776;-68
2023/07/28 08:30:10;;;;;;;;;0.00;0.00;;;;;25.50;54.63;100667.03;5075000;27;49676;-69
2023/07/28 08:32:36;;;;;;;;;2.00;0.00;;;;;25.51;54.17;100668.69;5076342;27;47075;-70
2023/07/28 08:35:02;;;;;;;;;0.00;0.00;;;;;25.51;54.76;100674.13;5075895;27;45526;-70
2023/07/28 08:37:28;;;;;;;;;1.00;1.00;;;;;25.54;54.78;100672.91;5076089;27;45716;-72
2023/07/28 08:39:54;;;;;;;;;1.00;0.00;;;;;25.48;54.36;100660.94;5075215;27;45655;-70
2023/07/28 08:42:22;;;;;;;;;0.00;0.00;;;;;25.58;54.34;100676.16;5074417;27;46152;-71
2023/07/28 08:44:48;;;;;;;;;0.33;0.33;;;;;25.59;54.48;100677.84;5073228;27;45921;-70
2023/07/28 08:47:15;;;;;;;;;0.00;0.00;;;;;25.60;54.47;100683.09;5072327;27;45542;-72
2023/07/28 08:49:40;;;;;;;;;0.00;0.00;;;;;25.62;54.89;100682.91;5076987;27;46502;-72
2023/07/28 08:52:06;;;;;;;;;0.00;0.00;;;;;25.62;54.74;100681.03;5093063;27;57748;-71
2023/07/28 08:54:31;;;;;;;;;1.33;0.00;;;;;25.62;54.81;100677.47;5085928;27;47363;-71
2023/07/28 08:56:59;;;;;;;;;2.00;0.00;;;;;25.65;54.54;100680.69;5085971;27;45464;-72
2023/07/28 08:59:27;;;;;;;;;0.00;0.00;;;;;25.68;54.09;100689.47;5090814;27;45341;-70
2023/07/28 09:01:54;;;;;;;;;0.00;0.00;;;;;25.69;55.05;100683.88;5069253;27;46332;-72
2023/07/28 09:04:21;;;;;;;;;1.67;0.00;;;;;25.72;55.01;100685.38;5084754;27;45529;-72
2023/07/28 09:06:48;;;;;;;;;0.00;0.00;;;;;25.72;54.65;100678.06;5088067;27;45488;-72
2023/07/28 09:09:14;;;;;;;;;1.00;0.00;;;;;25.72;54.77;100685.38;5090968;27;45697;-72
2023/07/28 09:11:48;;;;;;;;;2.00;0.33;;;;;25.74;54.54;100680.56;5087158;27;46629;-72
2023/07/28 09:14:16;;;;;;;;;0.00;0.00;;;;;25.74;54.55;100678.72;5088341;27;45932;-72
2023/07/28 09:16:41;;;;;;;;;0.00;0.00;;;;;25.75;54.83;100683.13;5088511;27;45790;-71
2023/07/28 09:19:10;;;;;;;;;0.00;0.00;;;;;25.77;54.29;100682.94;5092563;27;45444;-72
2023/07/28 09:21:37;;;;;;;;;0.00;0.00;;;;;25.78;54.99;100682.75;5092494;27;45680;-71
2023/07/28 09:24:12;;;;;;;;;0.00;0.00;;;;;25.80;54.61;100679.84;5091491;27;45737;-71
2023/07/28 09:26:42;;;;;;;;;0.00;0.00;;;;;25.82;54.40;100679.69;5072958;27;45525;-72
2023/07/28 09:29:17;;;;;;;;;0.00;0.00;;;;;25.79;54.10;100676.28;5091289;27;45858;-73
2023/07/28 09:31:47;;;;;;;;;1.00;1.00;;;;;25.76;52.56;100679.38;5091338;27;46194;-72
2023/07/28 09:34:26;;;;;;;;;0.00;0.00;;;;;25.72;52.57;100682.66;5092485;27;45545;-72
2023/07/28 09:37:01;;;;;;;;;1.00;1.00;;;;;25.62;52.97;100678.31;5088826;27;45848;-72
2023/07/28 09:39:28;;;;;;;;;0.00;0.00;;;;;25.60;52.35;100672.25;5084324;27;45478;-72
2023/07/28 09:41:58;;;;;;;;;0.00;0.00;;;;;25.58;52.58;100674.28;5087602;27;47068;-72
2023/07/28 09:44:23;;;;;;;;;1.00;1.00;;;;;25.57;53.09;100672.59;5085185;27;45653;-72
2023/07/28 09:46:51;;;;;;;;;0.33;0.33;;;;;25.57;53.88;100677.16;5084353;27;45401;-73
2023/07/28 09:49:27;;;;;;;;;2.00;0.33;;;;;25.55;54.70;100685.53;5090394;27;45327;-71
2023/07/28 09:51:54;;;;;;;;;1.00;1.00;;;;;25.54;55.28;100678.34;5090976;27;46349;-71
2023/07/28 09:54:29;;;;;;;;;0.33;0.33;;;;;25.53;56.09;100673.97;5091828;27;45505;-72
2023/07/28 09:56:59;;;;;;;;;2.00;0.00;;;;;25.51;56.26;100667.88;5090681;27;45542;-72
2023/07/28 09:59:38;;;;;;;;;2.00;0.00;;;;;25.47;57.00;100661.94;5092850;27;45886;-73
2023/07/28 10:02:05;;;;;;;;;0.00;0.00;;;;;25.48;57.49;100673.66;5082719;27;45481;-73
2023/07/28 10:04:32;;;;;;;;;0.00;0.00;;;;;25.46;57.02;100679.28;5089997;27;45620;-73
2023/07/28 10:06:57;;;;;;;;;0.00;0.00;;;;;25.41;57.19;100673.56;5083612;27;47284;-73
2023/07/28 10:09:28;;;;;;;;;0.67;0.67;;;;;25.43;57.31;100678.81;5071512;27;45534;-73
2023/07/28 10:11:55;;;;;;;;;1.00;1.00;;;;;25.37;57.53;100670.34;5074153;27;45690;-75
2023/07/28 10:14:31;;;;;;;;;0.00;0.00;;;;;25.39;57.94;100670.19;5072381;27;45576;-72
2023/07/28 10:16:58;;;;;;;;;0.00;0.00;;;;;25.38;57.68;100672.03;5077796;27;46001;-72
2023/07/28 10:19:27;;;;;;;;;0.00;0.00;;;;;25.37;57.96;100662.22;5074272;27;47085;-72
2023/07/28 10:22:00;;;;;;;;;1.00;1.00;;;;;25.37;58.12;100664.06;5087468;27;45839;-72
2023/07/28 10:25:00;;;;;;;;;1.00;1.00;;;;;25.37;58.52;100658.63;5090772;27;45680;-72
2023/07/28 10:27:38;;;;;;;;;0.00;0.00;;;;;25.37;58.87;100661.34;5085134;27;45552;-72
2023/07/28 10:30:11;;;;;;;;;1.00;1.00;;;;;25.36;58.89;100660.53;5087745;27;45485;-72
2023/07/28 10:32:46;;;;;;;;;1.00;1.00;;;;;25.37;58.66;100661.34;5087362;27;45455;-72
2023/07/28 10:35:17;;;;;;;;;0.00;0.00;;;;;25.38;59.30;100654.91;5084205;27;45581;-72
2023/07/28 10:37:46;;;;;;;;;1.00;1.00;;;;;25.38;59.40;100649.47;5088145;27;45595;-72
2023/07/28 10:40:26;;;;;;;;;1.00;1.00;;;;;25.42;59.45;100652.66;5089845;27;45881;-73
2023/07/28 10:42:52;;;;;;;;;0.50;0.50;;;;;25.43;59.83;100649.78;5086115;27;45484;-73
2023/07/28 10:45:18;;;;;;;;;1.00;1.00;;;;;25.44;59.36;100639.72;5080530;27;45454;-74
2023/07/28 10:47:45;;;;;;;;;0.00;0.00;;;;;25.43;59.33;100635.34;5079520;27;45562;-74
2023/07/28 10:50:11;;;;;;;;;0.67;0.67;;;;;25.46;58.93;100634.97;5092107;27;45820;-73
2023/07/28 10:52:44;;;;;;;;;1.00;1.00;;;;;25.46;57.38;100635.81;5088795;27;45796;-73
2023/07/28 10:55:20;;;;;;;;;2.00;0.00;;;;;25.48;56.27;100633.75;5091617;27;45540;-73
2023/07/28 10:57:47;;;;;;;;;1.67;0.33;;;;;25.51;56.51;100644.25;5085380;27;46138;-72
2023/07/28 11:00:15;;;;;;;;;1.00;0.00;;;;;25.53;55.76;100633.19;5086711;27;45581;-72
2023/07/28 11:02:44;;;;;;;;;1.00;1.00;;;;;25.58;56.35;100641.66;5088911;27;46200;-73
2023/07/28 11:05:14;;;;;;;;;1.00;1.00;;;;;25.57;56.05;100628.25;5091739;27;45477;-73
2023/07/28 11:07:43;;;;;;;;;0.00;0.00;;;;;25.60;55.72;100636.91;5090747;27;45733;-73
2023/07/28 11:10:13;;;;;;;;;0.00;0.00;;;;;25.60;56.12;100636.91;5093460;27;45586;-72
2023/07/28 11:12:47;;;;;;;;;1.00;0.00;;;;;25.60;56.21;100634.19;5087758;27;46053;-73
2023/07/28 11:15:15;;;;;;;;;0.00;0.00;;;;;25.61;55.99;100632.28;5096183;27;45536;-72
2023/07/28 11:17:42;;;;;;;;;1.00;1.00;;;;;25.63;55.31;100638.41;5093482;27;45860;-72
2023/07/28 11:20:24;;;;;;;;;1.00;1.00;;;;;25.65;55.57;100639.91;5084811;27;45660;-73
2023/07/28 11:23:04;;;;;;;;;0.67;0.67;;;;;25.70;55.53;100638.50;5088556;27;45541;-72
2023/07/28 11:25:30;;;;;;;;;1.00;1.00;;;;;25.72;55.50;100642.72;5088003;27;45539;-73
2023/07/28 11:27:56;;;;;;;;;2.00;0.33;;;;;25.76;56.04;100638.59;5090576;27;45386;-72
2023/07/28 11:30:23;;;;;;;;;0.00;0.00;;;;;25.78;55.36;100639.25;5089559;27;45869;-72
2023/07/28 11:32:51;;;;;;;;;1.00;1.00;;;;;25.82;55.17;100639.72;5087243;27;46376;-72
2023/07/28 11:35:22;;;;;;;;;0.67;0.67;;;;;25.86;55.43;100634.75;5087934;27;45659;-71
2023/07/28 11:37:52;;;;;;;;;2.00;0.00;;;;;25.87;55.50;100636.47;5087996;27;45725;-71
2023/07/28 11:40:21;;;;;;;;;0.00;0.00;;;;;25.91;54.88;100629.59;5086554;27;45670;-71
2023/07/28 11:42:52;;;;;;;;;1.00;1.00;;;;;25.94;54.96;100628.41;5083059;27;46153;-72
2023/07/28 11:45:18;;;;;;;;;0.67;0.67;;;;;25.96;55.12;100620.88;5068923;27;45731;-71
2023/07/28 11:48:03;;;;;;;;;0.00;0.00;;;;;26.00;54.83;100622.22;5078140;27;45587;-71
2023/07/28 11:50:34;;;;;;;;;1.00;1.00;;;;;26.02;54.68;100610.09;5080797;27;45541;-73
2023/07/28 11:52:59;;;;;;;;;0.67;0.67;;;;;26.08;54.62;100616.69;5084677;27;46131;-72
2023/07/28 11:55:25;;;;;;;;;1.00;1.00;;;;;26.10;55.17;100611.88;5084901;27;45792;-72
2023/07/28 11:57:52;;;;;;;;;1.00;0.00;;;;;26.13;54.55;100607.94;5085982;27;45594;-72
2023/07/28 12:00:17;;;;;;;;;0.00;0.00;;;;;26.15;54.93;100614.00;5084207;27;45506;-72
2023/07/28 12:02:44;;;;;;;;;3.00;0.33;;;;;26.17;54.32;100614.69;5085619;27;47082;-72
2023/07/28 12:05:16;;;;;;;;;0.33;0.33;;;;;26.07;54.82;100597.81;5081220;27;45807;-71
2023/07/28 12:07:48;;;;;;;;;1.00;1.00;;;;;26.19;54.33;100623.50;5081646;27;47117;-70
2023/07/28 12:10:17;;;;;;;;;3.00;1.33;;;;;26.22;54.93;100616.81;5075021;27;45720;-72
2023/07/28 12:12:48;;;;;;;;;1.00;1.00;;;;;26.20;55.00;100611.59;5072860;27;46249;-71
2023/07/28 12:15:28;;;;;;;;;1.33;0.00;;;;;26.21;55.01;100609.69;5084000;27;45530;-71
2023/07/28 12:18:12;;;;;;;;;0.33;0.33;;;;;26.19;54.33;100604.44;5080034;27;46110;-71
2023/07/28 12:20:46;;;;;;;;;1.00;1.00;;;;;26.21;55.22;100605.13;5065377;27;45515;-71
2023/07/28 12:23:12;;;;;;;;;0.00;0.00;;;;;26.22;54.65;100619.53;5085594;27;46201;-72
2023/07/28 12:25:38;;;;;;;;;1.00;1.00;;;;;26.20;55.00;100608.88;5093439;27;45292;-71
2023/07/28 12:28:04;;;;;;;;;1.00;1.00;;;;;26.20;54.91;100608.03;5092336;27;45441;-71
2023/07/28 12:30:29;;;;;;;;;1.00;1.00;;;;;26.21;54.74;100613.28;5087488;27;45618;-73
2023/07/28 12:32:55;;;;;;;;;0.00;0.00;;;;;26.20;55.31;100611.59;5085041;27;62813;-73
2023/07/28 12:35:23;;;;;;;;;2.00;0.33;;;;;26.21;54.65;100606.97;5089389;27;45695;-71
2023/07/28 12:37:49;;;;;;;;;1.00;1.00;;;;;26.21;55.30;100615.16;5088608;27;45741;-72
2023/07/28 12:40:14;;;;;;;;;0.33;0.33;;;;;26.20;54.53;100608.03;5084766;27;45609;-72
2023/07/28 12:42:40;;;;;;;;;0.33;0.33;;;;;26.21;55.08;100616.00;5081796;27;45567;-71
2023/07/28 12:45:06;;;;;;;;;0.00;0.00;;;;;26.20;54.65;100617.03;5085200;27;45454;-71
2023/07/28 12:47:31;;;;;;;;;0.00;0.00;;;;;26.22;55.03;100614.09;5084441;27;45548;-71
2023/07/28 12:49:57;;;;;;;;;1.00;1.00;;;;;26.21;55.16;100606.97;5085057;27;45533;-71
2023/07/28 12:52:22;;;;;;;;;3.33;1.00;;;;;26.22;54.96;100598.63;5085001;27;46899;-72
2023/07/28 12:54:47;;;;;;;;;1.00;0.00;;;;;26.23;55.14;100607.66;5087529;27;52882;-71
2023/07/28 12:57:13;;;;;;;;;1.33;1.00;;;;;26.23;55.19;100611.19;5088345;27;45599;-72
2023/07/28 12:59:39;;;;;;;;;0.00;0.00;;;;;26.23;54.59;100608.47;5086693;27;45661;-72
2023/07/28 13:02:04;;;;;;;;;1.33;1.33;;;;;26.24;54.88;100598.44;5084747;27;47568;-71
2023/07/28 13:04:29;;;;;;;;;1.33;1.33;;;;;26.23;54.78;100596.78;5085515;27;45668;-73
2023/07/28 13:06:54;;;;;;;;;2.33;1.67;;;;;26.20;54.93;100587.13;5082647;27;45997;-71
2023/07/28 13:09:20;;;;;;;;;2.00;2.00;;;;;26.18;55.09;100589.16;5083963;27;56441;-71
2023/07/28 13:11:45;;;;;;;;;1.00;1.00;;;;;26.14;54.66;100586.00;5084016;27;46085;-69
2023/07/28 13:14:11;;;;;;;;;1.00;1.00;;;;;26.11;54.85;100589.09;5084256;27;45519;-69
2023/07/28 13:16:37;;;;;;;;;3.33;1.00;;;;;26.08;55.14;100594.06;5087598;27;45768;-70
2023/07/28 13:19:03;;;;;;;;;1.00;1.00;;;;;26.02;55.09;100591.06;5084640;27;45616;-69
2023/07/28 13:21:29;;;;;;;;;2.00;1.00;;;;;26.03;54.86;100589.19;5081582;27;46562;-71
2023/07/28 13:23:54;;;;;;;;;2.00;1.00;;;;;26.00;55.16;100592.28;5083501;27;45637;-70
2023/07/28 13:26:19;;;;;;;;;1.00;0.00;;;;;26.01;54.53;100599.41;5084072;27;57596;-71
2023/07/28 13:28:47;;;;;;;;;1.00;1.00;;;;;25.99;54.98;100602.31;5084477;27;45589;-71
2023/07/28 13:31:13;;;;;;;;;2.00;2.00;;;;;25.99;54.38;100606.94;5084696;27;46366;-71
2023/07/28 13:33:38;;;;;;;;;0.00;0.00;;;;;25.94;55.07;100595.78;5081957;27;47051;-71
2023/07/28 13:36:07;;;;;;;;;0.67;0.33;;;;;25.98;54.34;100610.66;5081579;27;52923;-71
2023/07/28 13:38:32;;;;;;;;;3.00;1.67;;;;;25.96;54.43;100594.56;5084447;27;45852;-71
2023/07/28 13:40:57;;;;;;;;;0.00;0.00;;;;;25.96;54.90;100610.00;5083853;27;46298;-70
2023/07/28 13:43:23;;;;;;;;;1.00;1.00;;;;;25.97;54.16;100595.38;5084762;27;45661;-71
2023/07/28 13:45:48;;;;;;;;;0.33;0.33;;;;;25.95;54.63;100579.25;5083404;27;46112;-71
2023/07/28 13:48:13;;;;;;;;;1.00;1.00;;;;;25.96;54.68;100588.25;5090734;27;52148;-71
2023/07/28 13:50:38;;;;;;;;;1.00;1.00;;;;;25.96;53.81;100590.97;5092948;27;46569;-71
2023/07/28 13:53:04;;;;;;;;;0.67;0.67;;;;;25.96;53.88;100599.13;5093497;27;51230;-71
2023/07/28 13:55:29;;;;;;;;;0.00;0.00;;;;;25.96;54.24;100599.13;5093822;27;45413;-71
2023/07/28 13:57:55;;;;;;;;;0.67;0.67;;;;;25.95;54.06;100598.28;5093163;27;45487;-71
2023/07/28 14:00:20;;;;;;;;;0.67;0.67;;;;;25.96;53.88;100605.44;5092376;27;46367;-71
2023/07/28 14:02:45;;;;;;;;;1.00;1.00;;;;;25.96;54.26;100604.56;5089050;27;45577;-70
2023/07/28 14:05:10;;;;;;;;;2.00;2.00;;;;;25.96;54.08;100596.41;5091389;27;55314;-71
2023/07/28 14:07:36;;;;;;;;;1.00;1.00;;;;;25.86;53.56;100581.22;5081999;27;45805;-73
2023/07/28 14:10:02;;;;;;;;;0.00;0.00;;;;;25.94;54.12;100591.16;5073016;27;46198;-72
2023/07/28 14:12:27;;;;;;;;;0.00;0.00;;;;;25.95;53.75;100616.50;5073033;27;45592;-71
2023/07/28 14:14:53;;;;;;;;;0.00;0.00;;;;;25.95;53.34;100621.94;5074958;27;45540;-72
2023/07/28 14:17:18;;;;;;;;;0.00;0.00;;;;;25.94;53.48;100602.03;5084646;27;45670;-71
2023/07/28 14:19:44;;;;;;;;;1.00;1.00;;;;;25.93;53.65;100611.22;5090770;27;45987;-71
2023/07/28 14:22:09;;;;;;;;;0.00;0.00;;;;;25.92;53.79;100617.72;5088669;27;46414;-71
2023/07/28 14:24:34;;;;;;;;;0.33;0.33;;;;;25.92;53.43;100610.38;5090805;27;45574;-71
2023/07/28 14:27:00;;;;;;;;;0.33;0.33;;;;;25.92;53.51;100599.50;5090676;27;45544;-73
2023/07/28 14:29:26;;;;;;;;;0.33;0.33;;;;;25.92;53.54;100593.25;5096259;27;46476;-72
2023/07/28 14:31:51;;;;;;;;;0.33;0.33;;;;;25.90;53.76;100593.41;5094579;27;45513;-72
2023/07/28 14:34:17;;;;;;;;;1.00;0.00;;;;;25.91;53.19;100594.25;5094514;27;46362;-72
2023/07/28 14:36:42;;;;;;;;;0.00;0.00;;;;;25.90;53.79;100584.41;5094762;27;45589;-72
2023/07/28 14:39:08;;;;;;;;;2.00;0.33;;;;;25.91;53.73;100572.50;5089367;27;45829;-71
2023/07/28 14:41:35;;;;;;;;;0.33;0.33;;;;;25.91;53.50;100567.91;5094712;27;45676;-71
2023/07/28 14:44:01;;;;;;;;;1.00;0.00;;;;;25.87;53.44;100565.78;5095866;27;45508;-72
2023/07/28 14:46:26;;;;;;;;;0.67;0.67;;;;;25.91;53.17;100569.78;5092370;27;45557;-72
2023/07/28 14:48:52;;;;;;;;;0.00;0.00;;;;;25.90;53.08;100565.38;5092010;27;46017;-72
2023/07/28 14:51:17;;;;;;;;;0.00;0.00;;;;;25.92;52.88;100561.44;5091961;27;45533;-72
2023/07/28 14:53:45;;;;;;;;;0.00;0.00;;;;;25.92;52.93;100547.84;5091419;27;45344;-71
2023/07/28 14:56:11;;;;;;;;;0.00;0.00;;;;;25.92;53.46;100556.00;5092303;27;45485;-72
2023/07/28 14:58:37;;;;;;;;;0.33;0.33;;;;;25.93;53.20;100567.72;5091743;27;45600;-71
2023/07/28 15:01:04;;;;;;;;;0.00;0.00;;;;;25.92;52.73;100576.94;5094502;27;45527;-72
2023/07/28 15:03:33;;;;;;;;;0.33;0.33;;;;;25.92;53.43;100574.22;5093109;27;45833;-72
2023/07/28 15:05:58;;;;;;;;;1.00;1.00;;;;;25.92;53.45;100576.94;5091938;27;45798;-72
2023/07/28 15:08:24;;;;;;;;;0.00;0.00;;;;;25.91;52.79;100573.34;5094612;27;45652;-73
2023/07/28 15:10:49;;;;;;;;;0.00;0.00;;;;;25.91;52.58;100576.06;5093365;27;45847;-72
2023/07/28 15:13:14;;;;;;;;;0.00;0.00;;;;;25.92;53.15;100563.34;5093867;27;45463;-72
2023/07/28 15:15:40;;;;;;;;;0.00;0.00;;;;;25.91;53.07;100569.78;5094452;27;45522;-71
2023/07/28 15:18:05;;;;;;;;;0.67;0.67;;;;;25.92;52.63;100568.78;5094348;27;46327;-70
2023/07/28 15:20:32;;;;;;;;;0.00;0.00;;;;;25.92;52.56;100569.59;5094563;27;45666;-70
2023/07/28 15:22:59;;;;;;;;;1.00;1.00;;;;;25.92;53.13;100577.75;5095291;27;45462;-71
2023/07/28 15:25:25;;;;;;;;;0.00;0.00;;;;;25.92;52.81;100572.31;5095419;27;45537;-71
2023/07/28 15:27:50;;;;;;;;;0.00;0.00;;;;;25.93;52.96;100575.88;5094770;27;46579;-70
2023/07/28 15:30:16;;;;;;;;;0.00;0.00;;;;;25.95;53.42;100578.44;5094583;27;45471;-71
2023/07/28 15:32:41;;;;;;;;;0.00;0.00;;;;;25.96;53.27;100582.81;5090521;27;45629;-70
2023/07/28 15:35:07;;;;;;;;;0.67;0.67;;;;;25.96;53.14;100571.94;5094327;27;45523;-71
2023/07/28 15:37:32;;;;;;;;;0.00;0.00;;;;;25.98;52.91;100569.88;5085720;27;47756;-71
2023/07/28 15:39:58;;;;;;;;;0.00;0.00;;;;;25.99;53.11;100568.88;5088214;27;46951;-71
2023/07/28 15:42:24;;;;;;;;;0.00;0.00;;;;;26.00;53.43;100574.09;5087379;27;45474;-71
2023/07/28 15:44:50;;;;;;;;;0.00;0.00;;;;;25.98;53.25;100561.72;5090735;27;45466;-71
2023/07/28 15:47:15;;;;;;;;;0.00;0.00;;;;;26.01;52.88;100564.06;5094412;27;45906;-71
2023/07/28 15:49:41;;;;;;;;;0.00;0.00;;;;;26.02;53.16;100572.03;5084878;27;48007;-72
2023/07/28 15:52:07;;;;;;;;;0.00;0.00;;;;;26.04;53.43;100569.13;5078411;27;45688;-72
2023/07/28 15:54:32;;;;;;;;;0.00;0.00;;;;;26.01;52.74;100559.47;5058413;27;45767;-71
2023/07/28 15:56:57;;;;;;;;;1.00;1.00;;;;;26.04;52.69;100559.06;5074396;27;46045;-72
2023/07/28 15:59:23;;;;;;;;;0.00;0.00;;;;;26.07;53.44;100562.47;5075548;27;46097;-71
2023/07/28 16:01:48;;;;;;;;;0.67;0.67;;;;;26.06;52.98;100553.47;5076773;27;47070;-72
2023/07/28 16:04:13;;;;;;;;;0.00;0.00;;;;;26.08;53.43;100554.13;5054720;27;51998;-72
2023/07/28 16:06:39;;;;;;;;;0.67;0.67;;;;;26.09;53.11;100544.94;5086524;27;46196;-71
2023/07/28 16:09:04;;;;;;;;;1.00;0.00;;;;;26.08;52.53;100540.53;5074151;27;45750;-71
2023/07/28 16:11:30;;;;;;;;;0.00;0.00;;;;;26.03;52.58;100524.78;5074663;27;45981;-71
2023/07/28 16:13:56;;;;;;;;;0.00;0.00;;;;;26.08;52.62;100536.94;5074360;27;46188;-73
2023/07/28 16:16:21;;;;;;;;;1.33;0.67;;;;;26.06;52.82;100534.41;5065444;27;47016;-72
2023/07/28 16:18:47;;;;;;;;;0.00;0.00;;;;;26.04;52.27;100542.75;5075812;27;46103;-73
2023/07/28 16:21:12;;;;;;;;;0.00;0.00;;;;;26.05;52.47;100530.03;5088784;27;45675;-73
2023/07/28 16:23:37;;;;;;;;;0.00;0.00;;;;;26.00;52.35;100516.97;5083209;27;53229;-73
2023/07/28 16:26:03;;;;;;;;;1.00;1.00;;;;;26.01;52.43;100518.69;5089641;27;45827;-73
2023/07/28 16:28:28;;;;;;;;;0.00;0.00;;;;;26.03;52.85;100532.06;5090698;27;45588;-73
2023/07/28 16:30:53;;;;;;;;;0.67;0.67;;;;;26.02;52.36;100533.97;5094045;27;45460;-73
2023/07/28 16:33:19;;;;;;;;;0.00;0.00;;;;;26.04;52.19;100531.88;5091736;27;45673;-73
2023/07/28 16:35:44;;;;;;;;;0.67;0.67;;;;;26.05;52.31;100527.31;5093077;27;46337;-73
2023/07/28 16:38:10;;;;;;;;;0.00;0.00;;;;;26.04;52.78;100531.88;5089677;27;52341;-72
2023/07/28 16:40:35;;;;;;;;;0.00;0.00;;;;;26.04;52.13;100537.31;5088358;27;45463;-72
2023/07/28 16:43:00;;;;;;;;;0.33;0.33;;;;;26.05;52.05;100533.59;5094453;27;55310;-73
2023/07/28 16:45:25;;;;;;;;;2.00;0.67;;;;;26.05;52.54;100532.75;5091363;27;46462;-73
2023/07/28 16:47:51;;;;;;;;;0.67;0.67;;;;;26.05;52.81;100527.31;5092610;27;45799;-73
2023/07/28 16:50:16;;;;;;;;;0.67;0.33;;;;;26.04;52.19;100529.16;5089691;27;46017;-75
2023/07/28 16:52:42;;;;;;;;;0.00;0.00;;;;;26.05;52.06;100521.88;5093795;27;45511;-74
2023/07/28 16:55:07;;;;;;;;;0.00;0.00;;;;;26.06;52.09;100520.81;5091340;27;56191;-74
2023/07/28 16:57:33;;;;;;;;;1.33;0.33;;;;;26.06;52.62;100512.66;5088633;27;45414;-74
2023/07/28 16:59:58;;;;;;;;;0.00;0.00;;;;;26.08;52.72;100509.75;5093630;27;45500;-74
2023/07/28 17:02:23;;;;;;;;;0.00;0.00;;;;;26.07;52.18;100508.91;5090292;27;45624;-73
2023/07/28 17:04:49;;;;;;;;;1.00;1.00;;;;;26.06;52.53;100507.22;5091744;27;45785;-72
2023/07/28 17:07:14;;;;;;;;;1.33;0.00;;;;;26.07;52.08;100491.75;5090016;27;60595;-72
2023/07/28 17:09:39;;;;;;;;;0.00;0.00;;;;;26.09;52.65;100495.13;5092879;27;45560;-72
